sensor_id;sensor_type;location;lat;lon;timestamp;P1;durP1;ratioP1;P2;durP2;ratioP2
16878;SDS011;8556;52.218;9.884;2022-08-01T00:01:48;7.00;;;6.30;;
16878;SDS011;8556;52.218;9.884;2022-08-01T00:04:16;8.27;;;5.80;;
16878;SDS011;8556;52.218;9.884;2022-08-01T00:06:43;6.47;;;5.63;;
16878;SDS011;8556;52.218;9.884;2022-08-01T00:09:10;8.23;;;5.88;;
16878;SDS011;8556;52.218;9.884;2022-08-01T00:11:37;6.80;;;5.97;;
16878;SDS011;8556;52.218;9.884;2022-08-01T00:14:04;6.78;;;5.35;;
16878;SDS011;8556;52.218;9.884;2022-08-01T00:16:32;5.53;;;5.03;;
16878;SDS011;8556;52.218;9.884;2022-08-01T00:18:59;7.78;;;6.05;;
16878;SDS011;8556;52.218;9.884;2022-08-01T00:21:27;6.20;;;5.22;;
16878;SDS011;8556;52.218;9.884;2022-08-01T00:23:54;6.65;;;5.60;;
16878;SDS011;8556;52.218;9.884;2022-08-01T00:26:21;6.50;;;4.85;;
16878;SDS011;8556;52.218;9.884;2022-08-01T00:28:48;9.57;;;5.60;;
16878;SDS011;8556;52.218;9.884;2022-08-01T00:31:14;8.13;;;5.22;;
16878;SDS011;8556;52.218;9.884;2022-08-01T00:33:41;6.30;;;4.82;;
16878;SDS011;8556;52.218;9.884;2022-08-01T00:36:10;6.50;;;5.38;;
16878;SDS011;8556;52.218;9.884;2022-08-01T00:38:38;7.07;;;5.03;;
16878;SDS011;8556;52.218;9.884;2022-08-01T00:41:06;5.95;;;5.22;;
16878;SDS011;8556;52.218;9.884;2022-08-01T00:43:33;8.15;;;5.60;;
16878;SDS011;8556;52.218;9.884;2022-08-01T00:46:06;6.05;;;5.43;;
16878;SDS011;8556;52.218;9.884;2022-08-01T00:48:33;7.32;;;5.82;;
16878;SDS011;8556;52.218;9.884;2022-08-01T00:51:07;8.95;;;5.57;;
16878;SDS011;8556;52.218;9.884;2022-08-01T00:53:34;8.55;;;5.40;;
16878;SDS011;8556;52.218;9.884;2022-08-01T00:58:49;10.38;;;5.57;;
16878;SDS011;8556;52.218;9.884;2022-08-01T01:07:47;9.23;;;5.80;;
16878;SDS011;8556;52.218;9.884;2022-08-01T01:10:21;7.22;;;5.82;;
16878;SDS011;8556;52.218;9.884;2022-08-01T01:12:54;11.68;;;6.28;;
16878;SDS011;8556;52.218;9.884;2022-08-01T01:18:17;7.13;;;5.45;;
16878;SDS011;8556;52.218;9.884;2022-08-01T01:20:51;6.32;;;5.28;;
16878;SDS011;8556;52.218;9.884;2022-08-01T01:23:29;5.65;;;4.95;;
16878;SDS011;8556;52.218;9.884;2022-08-01T01:26:36;5.25;;;4.57;;
16878;SDS011;8556;52.218;9.884;2022-08-01T01:33:05;6.90;;;4.60;;
16878;SDS011;8556;52.218;9.884;2022-08-01T01:35:36;7.25;;;3.80;;
16878;SDS011;8556;52.218;9.884;2022-08-01T01:41:18;3.88;;;3.20;;
16878;SDS011;8556;52.218;9.884;2022-08-01T01:46:52;4.85;;;2.90;;
16878;SDS011;8556;52.218;9.884;2022-08-01T01:52:17;2.65;;;2.42;;
16878;SDS011;8556;52.218;9.884;2022-08-01T01:54:48;4.68;;;2.65;;
16878;SDS011;8556;52.218;9.884;2022-08-01T01:57:17;3.83;;;2.80;;
16878;SDS011;8556;52.218;9.884;2022-08-01T02:02:41;2.78;;;2.58;;
16878;SDS011;8556;52.218;9.884;2022-08-01T02:08:10;5.75;;;2.45;;
16878;SDS011;8556;52.218;9.884;2022-08-01T02:16:40;5.28;;;2.95;;
16878;SDS011;8556;52.218;9.884;2022-08-01T02:19:09;5.50;;;3.13;;
16878;SDS011;8556;52.218;9.884;2022-08-01T02:21:37;5.97;;;2.78;;
16878;SDS011;8556;52.218;9.884;2022-08-01T02:24:09;3.35;;;2.65;;
16878;SDS011;8556;52.218;9.884;2022-08-01T02:26:47;6.03;;;2.95;;
16878;SDS011;8556;52.218;9.884;2022-08-01T02:29:18;3.17;;;2.90;;
16878;SDS011;8556;52.218;9.884;2022-08-01T02:31:54;4.65;;;3.40;;
16878;SDS011;8556;52.218;9.884;2022-08-01T02:34:22;3.70;;;2.97;;
16878;SDS011;8556;52.218;9.884;2022-08-01T02:36:54;3.58;;;3.28;;
16878;SDS011;8556;52.218;9.884;2022-08-01T02:39:24;4.18;;;3.45;;
16878;SDS011;8556;52.218;9.884;2022-08-01T02:41:55;4.25;;;3.22;;
16878;SDS011;8556;52.218;9.884;2022-08-01T02:44:28;3.20;;;2.90;;
16878;SDS011;8556;52.218;9.884;2022-08-01T02:47:00;2.90;;;2.60;;
16878;SDS011;8556;52.218;9.884;2022-08-01T02:49:28;2.97;;;2.35;;
16878;SDS011;8556;52.218;9.884;2022-08-01T02:51:59;3.35;;;2.28;;
16878;SDS011;8556;52.218;9.884;2022-08-01T02:54:29;3.00;;;2.60;;
16878;SDS011;8556;52.218;9.884;2022-08-01T02:56:56;4.55;;;2.10;;
16878;SDS011;8556;52.218;9.884;2022-08-01T02:59:26;2.15;;;1.95;;
16878;SDS011;8556;52.218;9.884;2022-08-01T03:01:55;3.78;;;1.90;;
16878;SDS011;8556;52.218;9.884;2022-08-01T03:04:23;2.45;;;2.25;;
16878;SDS011;8556;52.218;9.884;2022-08-01T03:06:51;2.28;;;2.17;;
16878;SDS011;8556;52.218;9.884;2022-08-01T03:09:20;2.78;;;2.03;;
16878;SDS011;8556;52.218;9.884;2022-08-01T03:11:50;2.30;;;2.10;;
16878;SDS011;8556;52.218;9.884;2022-08-01T03:14:19;2.95;;;2.10;;
16878;SDS011;8556;52.218;9.884;2022-08-01T03:16:48;2.80;;;2.50;;
16878;SDS011;8556;52.218;9.884;2022-08-01T03:19:17;2.42;;;2.22;;
16878;SDS011;8556;52.218;9.884;2022-08-01T03:21:45;3.67;;;2.53;;
16878;SDS011;8556;52.218;9.884;2022-08-01T03:24:14;3.33;;;2.22;;
16878;SDS011;8556;52.218;9.884;2022-08-01T03:26:42;2.90;;;2.70;;
16878;SDS011;8556;52.218;9.884;2022-08-01T03:29:12;3.25;;;2.70;;
16878;SDS011;8556;52.218;9.884;2022-08-01T03:31:43;9.45;;;6.15;;
16878;SDS011;8556;52.218;9.884;2022-08-01T03:34:12;5.43;;;4.10;;
16878;SDS011;8556;52.218;9.884;2022-08-01T03:36:42;4.03;;;2.83;;
16878;SDS011;8556;52.218;9.884;2022-08-01T03:39:12;3.25;;;2.95;;
16878;SDS011;8556;52.218;9.884;2022-08-01T03:41:41;5.53;;;3.00;;
16878;SDS011;8556;52.218;9.884;2022-08-01T03:44:18;5.32;;;3.72;;
16878;SDS011;8556;52.218;9.884;2022-08-01T03:46:51;6.50;;;3.83;;
16878;SDS011;8556;52.218;9.884;2022-08-01T03:49:23;5.20;;;3.75;;
16878;SDS011;8556;52.218;9.884;2022-08-01T03:51:52;4.57;;;3.70;;
16878;SDS011;8556;52.218;9.884;2022-08-01T03:54:21;3.85;;;3.50;;
16878;SDS011;8556;52.218;9.884;2022-08-01T03:56:50;4.85;;;3.70;;
16878;SDS011;8556;52.218;9.884;2022-08-01T03:59:19;4.25;;;3.78;;
16878;SDS011;8556;52.218;9.884;2022-08-01T04:01:47;6.18;;;3.58;;
16878;SDS011;8556;52.218;9.884;2022-08-01T04:04:15;6.18;;;4.38;;
16878;SDS011;8556;52.218;9.884;2022-08-01T04:06:42;7.63;;;4.40;;
16878;SDS011;8556;52.218;9.884;2022-08-01T04:09:10;7.32;;;4.35;;
16878;SDS011;8556;52.218;9.884;2022-08-01T04:11:38;5.28;;;3.97;;
16878;SDS011;8556;52.218;9.884;2022-08-01T04:14:04;6.57;;;4.45;;
16878;SDS011;8556;52.218;9.884;2022-08-01T04:16:33;5.68;;;4.40;;
16878;SDS011;8556;52.218;9.884;2022-08-01T04:19:00;6.40;;;4.05;;
16878;SDS011;8556;52.218;9.884;2022-08-01T04:21:27;4.82;;;4.28;;
16878;SDS011;8556;52.218;9.884;2022-08-01T04:23:58;4.88;;;4.38;;
16878;SDS011;8556;52.218;9.884;2022-08-01T04:26:28;5.85;;;3.97;;
16878;SDS011;8556;52.218;9.884;2022-08-01T04:28:56;5.35;;;4.60;;
16878;SDS011;8556;52.218;9.884;2022-08-01T04:31:23;6.50;;;4.65;;
16878;SDS011;8556;52.218;9.884;2022-08-01T04:33:53;5.25;;;4.30;;
16878;SDS011;8556;52.218;9.884;2022-08-01T04:36:22;4.85;;;4.35;;
16878;SDS011;8556;52.218;9.884;2022-08-01T04:38:52;5.35;;;4.10;;
16878;SDS011;8556;52.218;9.884;2022-08-01T04:41:24;8.15;;;5.45;;
16878;SDS011;8556;52.218;9.884;2022-08-01T04:43:51;7.45;;;5.57;;
16878;SDS011;8556;52.218;9.884;2022-08-01T04:46:19;9.07;;;5.32;;
16878;SDS011;8556;52.218;9.884;2022-08-01T04:48:48;8.35;;;5.82;;
16878;SDS011;8556;52.218;9.884;2022-08-01T04:51:17;10.10;;;6.03;;
16878;SDS011;8556;52.218;9.884;2022-08-01T04:53:47;7.05;;;6.00;;
16878;SDS011;8556;52.218;9.884;2022-08-01T04:56:16;6.45;;;5.28;;
16878;SDS011;8556;52.218;9.884;2022-08-01T04:58:43;8.75;;;6.00;;
16878;SDS011;8556;52.218;9.884;2022-08-01T05:01:10;7.15;;;5.50;;
16878;SDS011;8556;52.218;9.884;2022-08-01T05:03:37;7.80;;;5.03;;
16878;SDS011;8556;52.218;9.884;2022-08-01T05:06:04;9.02;;;5.55;;
16878;SDS011;8556;52.218;9.884;2022-08-01T05:08:33;6.35;;;4.55;;
16878;SDS011;8556;52.218;9.884;2022-08-01T05:11:01;5.35;;;4.15;;
16878;SDS011;8556;52.218;9.884;2022-08-01T05:13:28;7.40;;;4.75;;
16878;SDS011;8556;52.218;9.884;2022-08-01T05:15:55;5.65;;;4.28;;
16878;SDS011;8556;52.218;9.884;2022-08-01T05:18:22;5.65;;;4.90;;
16878;SDS011;8556;52.218;9.884;2022-08-01T05:20:49;5.93;;;5.18;;
16878;SDS011;8556;52.218;9.884;2022-08-01T05:23:16;6.40;;;5.00;;
16878;SDS011;8556;52.218;9.884;2022-08-01T05:25:45;6.85;;;5.07;;
16878;SDS011;8556;52.218;9.884;2022-08-01T05:28:13;6.63;;;5.07;;
16878;SDS011;8556;52.218;9.884;2022-08-01T05:30:43;5.60;;;4.93;;
16878;SDS011;8556;52.218;9.884;2022-08-01T05:33:10;5.57;;;4.88;;
16878;SDS011;8556;52.218;9.884;2022-08-01T05:35:37;5.85;;;5.25;;
16878;SDS011;8556;52.218;9.884;2022-08-01T05:38:03;6.65;;;5.20;;
16878;SDS011;8556;52.218;9.884;2022-08-01T05:40:30;7.22;;;4.68;;
16878;SDS011;8556;52.218;9.884;2022-08-01T05:42:59;4.82;;;4.25;;
16878;SDS011;8556;52.218;9.884;2022-08-01T05:45:25;3.90;;;3.50;;
16878;SDS011;8556;52.218;9.884;2022-08-01T05:47:52;3.08;;;2.78;;
16878;SDS011;8556;52.218;9.884;2022-08-01T05:50:19;2.47;;;2.28;;
16878;SDS011;8556;52.218;9.884;2022-08-01T05:52:46;2.95;;;2.75;;
16878;SDS011;8556;52.218;9.884;2022-08-01T05:55:13;1.35;;;1.27;;
16878;SDS011;8556;52.218;9.884;2022-08-01T05:57:40;1.40;;;1.40;;
16878;SDS011;8556;52.218;9.884;2022-08-01T06:00:09;1.50;;;1.40;;
16878;SDS011;8556;52.218;9.884;2022-08-01T06:02:39;1.90;;;1.80;;
16878;SDS011;8556;52.218;9.884;2022-08-01T06:05:07;2.22;;;2.10;;
16878;SDS011;8556;52.218;9.884;2022-08-01T06:07:35;2.13;;;1.92;;
16878;SDS011;8556;52.218;9.884;2022-08-01T06:10:06;2.60;;;2.40;;
16878;SDS011;8556;52.218;9.884;2022-08-01T06:12:33;2.13;;;1.98;;
16878;SDS011;8556;52.218;9.884;2022-08-01T06:15:01;2.50;;;2.30;;
16878;SDS011;8556;52.218;9.884;2022-08-01T06:17:29;2.83;;;1.80;;
16878;SDS011;8556;52.218;9.884;2022-08-01T06:19:56;2.50;;;2.30;;
16878;SDS011;8556;52.218;9.884;2022-08-01T06:22:23;2.40;;;2.20;;
16878;SDS011;8556;52.218;9.884;2022-08-01T06:24:50;2.45;;;2.00;;
16878;SDS011;8556;52.218;9.884;2022-08-01T06:27:17;2.67;;;2.47;;
16878;SDS011;8556;52.218;9.884;2022-08-01T06:29:44;3.00;;;2.38;;
16878;SDS011;8556;52.218;9.884;2022-08-01T06:32:10;2.40;;;2.20;;
16878;SDS011;8556;52.218;9.884;2022-08-01T06:34:39;5.18;;;2.33;;
16878;SDS011;8556;52.218;9.884;2022-08-01T06:37:05;3.35;;;2.60;;
16878;SDS011;8556;52.218;9.884;2022-08-01T06:39:32;2.47;;;2.28;;
16878;SDS011;8556;52.218;9.884;2022-08-01T06:41:59;3.53;;;3.10;;
16878;SDS011;8556;52.218;9.884;2022-08-01T06:44:26;4.82;;;3.47;;
16878;SDS011;8556;52.218;9.884;2022-08-01T06:46:53;3.50;;;3.20;;
16878;SDS011;8556;52.218;9.884;2022-08-01T06:49:20;4.03;;;3.63;;
16878;SDS011;8556;52.218;9.884;2022-08-01T06:51:48;6.15;;;4.75;;
16878;SDS011;8556;52.218;9.884;2022-08-01T06:54:15;8.02;;;5.53;;
16878;SDS011;8556;52.218;9.884;2022-08-01T06:56:42;4.63;;;4.10;;
16878;SDS011;8556;52.218;9.884;2022-08-01T06:59:09;5.43;;;4.15;;
16878;SDS011;8556;52.218;9.884;2022-08-01T07:01:36;5.07;;;4.28;;
16878;SDS011;8556;52.218;9.884;2022-08-01T07:04:03;5.15;;;3.88;;
16878;SDS011;8556;52.218;9.884;2022-08-01T07:06:30;4.35;;;3.80;;
16878;SDS011;8556;52.218;9.884;2022-08-01T07:08:58;2.63;;;2.15;;
16878;SDS011;8556;52.218;9.884;2022-08-01T07:11:26;2.50;;;2.30;;
16878;SDS011;8556;52.218;9.884;2022-08-01T07:13:52;3.50;;;2.72;;
16878;SDS011;8556;52.218;9.884;2022-08-01T07:16:19;3.30;;;3.00;;
16878;SDS011;8556;52.218;9.884;2022-08-01T07:18:47;2.40;;;2.20;;
16878;SDS011;8556;52.218;9.884;2022-08-01T07:21:13;3.78;;;2.58;;
16878;SDS011;8556;52.218;9.884;2022-08-01T07:23:40;2.80;;;2.60;;
16878;SDS011;8556;52.218;9.884;2022-08-01T07:26:09;3.75;;;3.00;;
16878;SDS011;8556;52.218;9.884;2022-08-01T07:28:36;4.75;;;2.92;;
16878;SDS011;8556;52.218;9.884;2022-08-01T07:31:03;4.30;;;3.35;;
16878;SDS011;8556;52.218;9.884;2022-08-01T07:33:30;5.80;;;4.55;;
16878;SDS011;8556;52.218;9.884;2022-08-01T07:35:57;4.93;;;2.72;;
16878;SDS011;8556;52.218;9.884;2022-08-01T07:38:23;3.20;;;2.90;;
16878;SDS011;8556;52.218;9.884;2022-08-01T07:40:50;4.47;;;2.95;;
16878;SDS011;8556;52.218;9.884;2022-08-01T07:43:19;2.72;;;2.53;;
16878;SDS011;8556;52.218;9.884;2022-08-01T07:45:46;2.65;;;2.45;;
16878;SDS011;8556;52.218;9.884;2022-08-01T07:48:12;3.15;;;2.40;;
16878;SDS011;8556;52.218;9.884;2022-08-01T07:50:39;2.58;;;2.38;;
16878;SDS011;8556;52.218;9.884;2022-08-01T07:53:06;2.72;;;2.53;;
16878;SDS011;8556;52.218;9.884;2022-08-01T07:55:35;2.60;;;2.40;;
16878;SDS011;8556;52.218;9.884;2022-08-01T07:58:02;3.03;;;2.65;;
16878;SDS011;8556;52.218;9.884;2022-08-01T08:00:30;3.40;;;3.10;;
16878;SDS011;8556;52.218;9.884;2022-08-01T08:02:57;3.22;;;2.95;;
16878;SDS011;8556;52.218;9.884;2022-08-01T08:05:24;3.15;;;2.53;;
16878;SDS011;8556;52.218;9.884;2022-08-01T08:07:52;5.45;;;2.50;;
16878;SDS011;8556;52.218;9.884;2022-08-01T08:10:19;2.90;;;2.70;;
16878;SDS011;8556;52.218;9.884;2022-08-01T08:12:46;2.60;;;2.40;;
16878;SDS011;8556;52.218;9.884;2022-08-01T08:15:13;3.30;;;2.65;;
16878;SDS011;8556;52.218;9.884;2022-08-01T08:17:42;4.78;;;2.70;;
16878;SDS011;8556;52.218;9.884;2022-08-01T08:20:09;2.90;;;2.70;;
16878;SDS011;8556;52.218;9.884;2022-08-01T08:22:36;2.80;;;2.58;;
16878;SDS011;8556;52.218;9.884;2022-08-01T08:25:04;3.40;;;2.60;;
16878;SDS011;8556;52.218;9.884;2022-08-01T08:27:32;2.90;;;2.53;;
16878;SDS011;8556;52.218;9.884;2022-08-01T08:29:59;2.47;;;2.28;;
16878;SDS011;8556;52.218;9.884;2022-08-01T08:32:26;3.47;;;2.50;;
16878;SDS011;8556;52.218;9.884;2022-08-01T08:34:54;2.50;;;2.30;;
16878;SDS011;8556;52.218;9.884;2022-08-01T08:37:21;2.40;;;2.20;;
16878;SDS011;8556;52.218;9.884;2022-08-01T08:39:48;3.70;;;2.78;;
16878;SDS011;8556;52.218;9.884;2022-08-01T08:42:15;2.08;;;1.98;;
16878;SDS011;8556;52.218;9.884;2022-08-01T08:44:42;2.40;;;2.25;;
16878;SDS011;8556;52.218;9.884;2022-08-01T08:47:11;3.63;;;2.63;;
16878;SDS011;8556;52.218;9.884;2022-08-01T08:49:39;3.10;;;2.85;;
16878;SDS011;8556;52.218;9.884;2022-08-01T08:52:10;2.35;;;2.15;;
16878;SDS011;8556;52.218;9.884;2022-08-01T08:54:38;2.40;;;2.20;;
16878;SDS011;8556;52.218;9.884;2022-08-01T08:57:07;2.65;;;2.50;;
16878;SDS011;8556;52.218;9.884;2022-08-01T08:59:36;2.65;;;2.42;;
16878;SDS011;8556;52.218;9.884;2022-08-01T09:02:04;2.28;;;2.08;;
16878;SDS011;8556;52.218;9.884;2022-08-01T09:04:31;2.50;;;2.30;;
16878;SDS011;8556;52.218;9.884;2022-08-01T09:06:58;4.00;;;2.40;;
16878;SDS011;8556;52.218;9.884;2022-08-01T09:09:26;4.00;;;2.60;;
16878;SDS011;8556;52.218;9.884;2022-08-01T09:11:54;3.35;;;3.05;;
16878;SDS011;8556;52.218;9.884;2022-08-01T09:14:22;3.05;;;2.70;;
16878;SDS011;8556;52.218;9.884;2022-08-01T09:16:58;3.50;;;2.65;;
16878;SDS011;8556;52.218;9.884;2022-08-01T09:19:27;2.80;;;2.60;;
16878;SDS011;8556;52.218;9.884;2022-08-01T09:22:02;3.17;;;2.50;;
16878;SDS011;8556;52.218;9.884;2022-08-01T09:24:32;3.38;;;2.53;;
16878;SDS011;8556;52.218;9.884;2022-08-01T09:27:00;3.10;;;2.25;;
16878;SDS011;8556;52.218;9.884;2022-08-01T09:29:40;2.00;;;1.90;;
16878;SDS011;8556;52.218;9.884;2022-08-01T09:32:09;2.10;;;1.90;;
16878;SDS011;8556;52.218;9.884;2022-08-01T09:34:36;2.47;;;1.80;;
16878;SDS011;8556;52.218;9.884;2022-08-01T09:37:03;1.98;;;1.45;;
16878;SDS011;8556;52.218;9.884;2022-08-01T09:39:33;1.80;;;1.70;;
16878;SDS011;8556;52.218;9.884;2022-08-01T09:42:18;1.40;;;1.35;;
16878;SDS011;8556;52.218;9.884;2022-08-01T09:44:46;2.05;;;1.70;;
16878;SDS011;8556;52.218;9.884;2022-08-01T09:47:13;1.33;;;1.30;;
16878;SDS011;8556;52.218;9.884;2022-08-01T09:49:42;2.08;;;1.88;;
16878;SDS011;8556;52.218;9.884;2022-08-01T09:52:11;2.13;;;1.90;;
16878;SDS011;8556;52.218;9.884;2022-08-01T09:54:41;1.50;;;1.40;;
16878;SDS011;8556;52.218;9.884;2022-08-01T09:57:10;1.63;;;1.52;;
16878;SDS011;8556;52.218;9.884;2022-08-01T09:59:39;2.00;;;1.83;;
16878;SDS011;8556;52.218;9.884;2022-08-01T10:02:08;2.60;;;2.03;;
16878;SDS011;8556;52.218;9.884;2022-08-01T10:04:45;2.38;;;2.05;;
16878;SDS011;8556;52.218;9.884;2022-08-01T10:07:13;3.22;;;2.92;;
16878;SDS011;8556;52.218;9.884;2022-08-01T10:09:44;5.28;;;1.88;;
16878;SDS011;8556;52.218;9.884;2022-08-01T10:12:13;1.38;;;1.27;;
16878;SDS011;8556;52.218;9.884;2022-08-01T10:14:41;2.00;;;1.15;;
16878;SDS011;8556;52.218;9.884;2022-08-01T10:17:11;1.73;;;1.30;;
16878;SDS011;8556;52.218;9.884;2022-08-01T10:19:41;2.65;;;1.30;;
16878;SDS011;8556;52.218;9.884;2022-08-01T10:22:11;1.33;;;1.10;;
16878;SDS011;8556;52.218;9.884;2022-08-01T10:24:41;1.92;;;1.55;;
16878;SDS011;8556;52.218;9.884;2022-08-01T10:27:13;1.23;;;1.13;;
16878;SDS011;8556;52.218;9.884;2022-08-01T10:29:42;1.30;;;1.20;;
16878;SDS011;8556;52.218;9.884;2022-08-01T10:32:12;1.25;;;1.15;;
16878;SDS011;8556;52.218;9.884;2022-08-01T10:34:39;1.50;;;0.93;;
16878;SDS011;8556;52.218;9.884;2022-08-01T10:37:06;2.17;;;1.50;;
16878;SDS011;8556;52.218;9.884;2022-08-01T10:39:34;1.55;;;1.20;;
16878;SDS011;8556;52.218;9.884;2022-08-01T10:42:02;1.50;;;1.40;;
16878;SDS011;8556;52.218;9.884;2022-08-01T10:44:30;1.60;;;1.20;;
16878;SDS011;8556;52.218;9.884;2022-08-01T10:47:01;2.88;;;1.40;;
16878;SDS011;8556;52.218;9.884;2022-08-01T10:49:34;2.75;;;1.80;;
16878;SDS011;8556;52.218;9.884;2022-08-01T10:52:07;2.42;;;2.17;;
16878;SDS011;8556;52.218;9.884;2022-08-01T10:54:39;2.03;;;1.92;;
16878;SDS011;8556;52.218;9.884;2022-08-01T10:57:08;2.10;;;1.90;;
16878;SDS011;8556;52.218;9.884;2022-08-01T10:59:35;2.88;;;2.10;;
16878;SDS011;8556;52.218;9.884;2022-08-01T11:02:26;2.22;;;1.80;;
16878;SDS011;8556;52.218;9.884;2022-08-01T11:04:58;2.20;;;2.00;;
16878;SDS011;8556;52.218;9.884;2022-08-01T11:07:35;1.92;;;1.83;;
16878;SDS011;8556;52.218;9.884;2022-08-01T11:10:16;2.22;;;2.03;;
16878;SDS011;8556;52.218;9.884;2022-08-01T11:12:56;2.20;;;2.10;;
16878;SDS011;8556;52.218;9.884;2022-08-01T11:15:24;2.92;;;1.98;;
16878;SDS011;8556;52.218;9.884;2022-08-01T11:17:53;2.95;;;2.40;;
16878;SDS011;8556;52.218;9.884;2022-08-01T11:20:22;2.65;;;2.30;;
16878;SDS011;8556;52.218;9.884;2022-08-01T11:29:12;4.55;;;2.80;;
16878;SDS011;8556;52.218;9.884;2022-08-01T11:31:41;4.45;;;3.50;;
16878;SDS011;8556;52.218;9.884;2022-08-01T11:34:14;4.38;;;3.95;;
16878;SDS011;8556;52.218;9.884;2022-08-01T11:36:41;5.85;;;4.00;;
16878;SDS011;8556;52.218;9.884;2022-08-01T11:39:13;3.70;;;3.40;;
16878;SDS011;8556;52.218;9.884;2022-08-01T11:41:41;4.60;;;3.50;;
16878;SDS011;8556;52.218;9.884;2022-08-01T11:44:14;6.00;;;3.78;;
16878;SDS011;8556;52.218;9.884;2022-08-01T11:46:57;3.22;;;2.90;;
16878;SDS011;8556;52.218;9.884;2022-08-01T11:52:16;3.58;;;2.55;;
16878;SDS011;8556;52.218;9.884;2022-08-01T11:54:45;2.85;;;2.65;;
16878;SDS011;8556;52.218;9.884;2022-08-01T11:57:18;2.83;;;2.63;;
16878;SDS011;8556;52.218;9.884;2022-08-01T11:59:47;4.22;;;2.95;;
16878;SDS011;8556;52.218;9.884;2022-08-01T12:02:17;5.20;;;3.58;;
16878;SDS011;8556;52.218;9.884;2022-08-01T12:04:46;7.07;;;4.00;;
16878;SDS011;8556;52.218;9.884;2022-08-01T12:07:15;5.05;;;4.13;;
16878;SDS011;8556;52.218;9.884;2022-08-01T12:12:32;7.38;;;3.50;;
16878;SDS011;8556;52.218;9.884;2022-08-01T12:15:02;3.88;;;2.85;;
16878;SDS011;8556;52.218;9.884;2022-08-01T12:17:32;7.30;;;3.05;;
16878;SDS011;8556;52.218;9.884;2022-08-01T12:20:00;8.18;;;3.35;;
16878;SDS011;8556;52.218;9.884;2022-08-01T12:25:18;4.43;;;3.00;;
16878;SDS011;8556;52.218;9.884;2022-08-01T12:30:46;4.70;;;3.47;;
16878;SDS011;8556;52.218;9.884;2022-08-01T12:33:16;7.43;;;3.13;;
16878;SDS011;8556;52.218;9.884;2022-08-01T12:39:06;4.53;;;3.00;;
16878;SDS011;8556;52.218;9.884;2022-08-01T12:44:12;5.97;;;2.72;;
16878;SDS011;8556;52.218;9.884;2022-08-01T12:46:41;4.03;;;2.75;;
16878;SDS011;8556;52.218;9.884;2022-08-01T12:52:30;5.20;;;2.45;;
16878;SDS011;8556;52.218;9.884;2022-08-01T12:58:19;5.47;;;3.30;;
16878;SDS011;8556;52.218;9.884;2022-08-01T13:03:36;5.50;;;3.70;;
16878;SDS011;8556;52.218;9.884;2022-08-01T13:06:10;5.68;;;3.28;;
16878;SDS011;8556;52.218;9.884;2022-08-01T13:08:37;4.18;;;2.83;;
16878;SDS011;8556;52.218;9.884;2022-08-01T13:11:04;3.50;;;3.20;;
16878;SDS011;8556;52.218;9.884;2022-08-01T13:13:37;4.82;;;2.90;;
16878;SDS011;8556;52.218;9.884;2022-08-01T13:16:05;2.78;;;2.53;;
16878;SDS011;8556;52.218;9.884;2022-08-01T13:18:33;4.95;;;2.95;;
16878;SDS011;8556;52.218;9.884;2022-08-01T13:21:07;5.07;;;3.03;;
16878;SDS011;8556;52.218;9.884;2022-08-01T13:23:39;9.25;;;3.33;;
16878;SDS011;8556;52.218;9.884;2022-08-01T13:26:07;4.97;;;3.20;;
16878;SDS011;8556;52.218;9.884;2022-08-01T13:28:34;3.60;;;3.30;;
16878;SDS011;8556;52.218;9.884;2022-08-01T13:31:04;3.83;;;3.40;;
16878;SDS011;8556;52.218;9.884;2022-08-01T13:33:39;5.95;;;3.90;;
16878;SDS011;8556;52.218;9.884;2022-08-01T13:36:09;7.28;;;3.38;;
16878;SDS011;8556;52.218;9.884;2022-08-01T13:38:36;4.40;;;3.05;;
16878;SDS011;8556;52.218;9.884;2022-08-01T13:41:21;6.03;;;3.30;;
16878;SDS011;8556;52.218;9.884;2022-08-01T13:43:48;4.55;;;3.10;;
16878;SDS011;8556;52.218;9.884;2022-08-01T13:46:15;3.83;;;3.20;;
16878;SDS011;8556;52.218;9.884;2022-08-01T13:48:42;5.22;;;3.30;;
16878;SDS011;8556;52.218;9.884;2022-08-01T13:51:10;4.35;;;3.15;;
16878;SDS011;8556;52.218;9.884;2022-08-01T13:53:37;4.95;;;3.63;;
16878;SDS011;8556;52.218;9.884;2022-08-01T13:56:04;4.38;;;3.38;;
16878;SDS011;8556;52.218;9.884;2022-08-01T13:58:32;7.55;;;3.70;;
16878;SDS011;8556;52.218;9.884;2022-08-01T14:00:58;6.05;;;4.10;;
16878;SDS011;8556;52.218;9.884;2022-08-01T14:03:25;6.32;;;3.80;;
16878;SDS011;8556;52.218;9.884;2022-08-01T14:05:52;7.18;;;3.60;;
16878;SDS011;8556;52.218;9.884;2022-08-01T14:08:21;4.18;;;3.50;;
16878;SDS011;8556;52.218;9.884;2022-08-01T14:10:47;7.65;;;3.53;;
16878;SDS011;8556;52.218;9.884;2022-08-01T14:13:15;4.70;;;3.30;;
16878;SDS011;8556;52.218;9.884;2022-08-01T14:15:41;3.90;;;2.90;;
16878;SDS011;8556;52.218;9.884;2022-08-01T14:18:08;7.45;;;3.45;;
16878;SDS011;8556;52.218;9.884;2022-08-01T14:20:36;4.45;;;3.13;;
16878;SDS011;8556;52.218;9.884;2022-08-01T14:23:03;4.65;;;2.75;;
16878;SDS011;8556;52.218;9.884;2022-08-01T14:25:32;6.10;;;3.10;;
16878;SDS011;8556;52.218;9.884;2022-08-01T14:27:59;7.18;;;2.97;;
16878;SDS011;8556;52.218;9.884;2022-08-01T14:30:26;7.30;;;3.17;;
16878;SDS011;8556;52.218;9.884;2022-08-01T14:32:52;5.90;;;3.30;;
16878;SDS011;8556;52.218;9.884;2022-08-01T14:35:19;4.10;;;2.95;;
16878;SDS011;8556;52.218;9.884;2022-08-01T14:37:47;10.23;;;3.47;;
16878;SDS011;8556;52.218;9.884;2022-08-01T14:40:13;5.60;;;3.10;;
16878;SDS011;8556;52.218;9.884;2022-08-01T14:42:42;3.53;;;2.90;;
16878;SDS011;8556;52.218;9.884;2022-08-01T14:45:10;6.78;;;3.50;;
16878;SDS011;8556;52.218;9.884;2022-08-01T14:47:38;4.30;;;3.00;;
16878;SDS011;8556;52.218;9.884;2022-08-01T14:50:07;5.47;;;3.40;;
16878;SDS011;8556;52.218;9.884;2022-08-01T14:52:35;3.78;;;3.35;;
16878;SDS011;8556;52.218;9.884;2022-08-01T14:55:04;4.38;;;2.95;;
16878;SDS011;8556;52.218;9.884;2022-08-01T14:57:32;5.65;;;3.33;;
16878;SDS011;8556;52.218;9.884;2022-08-01T15:00:00;5.40;;;3.30;;
16878;SDS011;8556;52.218;9.884;2022-08-01T15:02:28;6.00;;;3.45;;
16878;SDS011;8556;52.218;9.884;2022-08-01T15:04:55;6.65;;;2.97;;
16878;SDS011;8556;52.218;9.884;2022-08-01T15:07:22;8.32;;;3.58;;
16878;SDS011;8556;52.218;9.884;2022-08-01T15:09:49;5.32;;;3.35;;
16878;SDS011;8556;52.218;9.884;2022-08-01T15:12:16;4.57;;;3.33;;
16878;SDS011;8556;52.218;9.884;2022-08-01T15:14:43;6.20;;;3.30;;
16878;SDS011;8556;52.218;9.884;2022-08-01T15:17:19;7.10;;;3.70;;
16878;SDS011;8556;52.218;9.884;2022-08-01T15:19:49;6.68;;;3.67;;
16878;SDS011;8556;52.218;9.884;2022-08-01T15:22:17;10.80;;;4.35;;
16878;SDS011;8556;52.218;9.884;2022-08-01T15:24:46;7.43;;;3.80;;
16878;SDS011;8556;52.218;9.884;2022-08-01T15:27:14;9.65;;;4.00;;
16878;SDS011;8556;52.218;9.884;2022-08-01T15:29:41;6.22;;;4.30;;
16878;SDS011;8556;52.218;9.884;2022-08-01T15:32:08;5.90;;;4.18;;
16878;SDS011;8556;52.218;9.884;2022-08-01T15:34:37;5.35;;;3.60;;
16878;SDS011;8556;52.218;9.884;2022-08-01T15:37:04;6.85;;;4.25;;
16878;SDS011;8556;52.218;9.884;2022-08-01T15:39:32;5.80;;;4.18;;
16878;SDS011;8556;52.218;9.884;2022-08-01T15:42:01;6.25;;;4.47;;
16878;SDS011;8556;52.218;9.884;2022-08-01T15:44:31;6.28;;;4.55;;
16878;SDS011;8556;52.218;9.884;2022-08-01T15:46:58;7.35;;;4.30;;
16878;SDS011;8556;52.218;9.884;2022-08-01T15:49:26;5.10;;;4.07;;
16878;SDS011;8556;52.218;9.884;2022-08-01T15:51:54;6.13;;;3.65;;
16878;SDS011;8556;52.218;9.884;2022-08-01T15:54:21;7.70;;;4.05;;
16878;SDS011;8556;52.218;9.884;2022-08-01T15:56:49;9.65;;;4.13;;
16878;SDS011;8556;52.218;9.884;2022-08-01T15:59:16;6.47;;;3.67;;
16878;SDS011;8556;52.218;9.884;2022-08-01T16:01:43;5.38;;;3.78;;
16878;SDS011;8556;52.218;9.884;2022-08-01T16:04:14;6.53;;;3.80;;
16878;SDS011;8556;52.218;9.884;2022-08-01T16:06:41;8.40;;;3.80;;
16878;SDS011;8556;52.218;9.884;2022-08-01T16:09:10;5.15;;;3.65;;
16878;SDS011;8556;52.218;9.884;2022-08-01T16:11:37;7.82;;;3.63;;
16878;SDS011;8556;52.218;9.884;2022-08-01T16:14:04;5.95;;;3.90;;
16878;SDS011;8556;52.218;9.884;2022-08-01T16:16:32;5.20;;;3.47;;
16878;SDS011;8556;52.218;9.884;2022-08-01T16:18:58;7.05;;;3.88;;
16878;SDS011;8556;52.218;9.884;2022-08-01T16:21:25;7.53;;;4.07;;